Klein, Texas
Current Conditions -  °F | °C
As of 8:53 AM on Wednesday 22 Oct 2014 (Local Time) from KDWH Reporting Station
Clear Clear  
Wind Chill: 68°   Ceiling: Unl
Heat Index: 68°   Visibility: 8mi
Dew Point: 62°   Wind: 0mph
Humidity: 81%   Direction: NA
Pressure: 30.11"   Gusts: NA
Location:  30.1189°N, 95.5166°W
Report Text: KDWH 221353Z 00000KT 8SM CLR 20/17 A3011 RMK AO2 SLP193 T02000167
Loading
Personal Weather Stations






























Interactive Weather Map
Tropical Storm Tracking
New forecast layout! Learn more

10-Day Weather Forecast

Advertisements
Track Severe Weather on mobile